createdAt,value
2019-05-13T00:00:14.404Z,7.06
2019-05-13T00:02:46.455Z,7.14
2019-05-13T00:05:18.656Z,7.14
2019-05-13T00:07:50.534Z,7.16
2019-05-13T00:10:24.201Z,7.07
2019-05-13T00:12:55.320Z,7.03
2019-05-13T00:15:27.318Z,7.00
2019-05-13T00:17:59.211Z,6.90
2019-05-13T00:20:30.669Z,6.87
2019-05-13T00:23:03.909Z,6.99
2019-05-13T00:25:36.037Z,7.03
2019-05-13T00:28:07.830Z,6.95
2019-05-13T00:30:39.691Z,7.04
2019-05-13T00:33:13.765Z,7.12
2019-05-13T00:35:45.069Z,6.81
2019-05-13T00:38:17.447Z,6.71
2019-05-13T00:40:49.017Z,6.89
2019-05-13T00:43:20.742Z,6.64
2019-05-13T00:45:53.455Z,6.65
2019-05-13T00:48:26.009Z,6.45
2019-05-13T00:50:58.798Z,6.81
2019-05-13T00:53:30.835Z,6.70
2019-05-13T00:56:04.021Z,6.37
2019-05-13T00:58:37.029Z,6.50
2019-05-13T01:01:09.900Z,6.33
2019-05-13T01:03:44.031Z,6.50
2019-05-13T01:06:15.105Z,6.32
2019-05-13T01:08:46.961Z,6.07
2019-05-13T01:11:19.519Z,6.13
2019-05-13T01:13:53.608Z,6.23
2019-05-13T01:16:25.331Z,6.16
2019-05-13T01:18:57.509Z,6.21
2019-05-13T01:21:29.598Z,6.06
2019-05-13T01:24:03.779Z,6.28
2019-05-13T01:26:34.873Z,5.98
2019-05-13T01:29:06.528Z,5.98
2019-05-13T01:31:38.689Z,5.99
2019-05-13T01:34:10.650Z,6.08
2019-05-13T01:36:44.455Z,6.02
2019-05-13T01:39:16.632Z,5.90
2019-05-13T01:41:49.006Z,5.99
2019-05-13T01:44:20.548Z,6.02
2019-05-13T01:46:53.779Z,5.95
2019-05-13T01:49:25.477Z,5.98
2019-05-13T01:51:58.082Z,6.00
2019-05-13T01:54:29.947Z,5.94
2019-05-13T01:57:04.483Z,5.90
2019-05-13T01:59:36.596Z,5.79
2019-05-13T02:02:08.815Z,6.04
2019-05-13T02:04:40.329Z,6.01
2019-05-13T02:07:13.811Z,5.98
2019-05-13T02:09:46.021Z,5.80
2019-05-13T02:12:19.078Z,5.95
2019-05-13T02:14:50.736Z,6.08
2019-05-13T02:17:23.574Z,6.15
2019-05-13T02:19:56.010Z,6.51
2019-05-13T02:22:28.387Z,6.30
2019-05-13T02:25:00.934Z,5.83
2019-05-13T02:27:34.496Z,6.11
2019-05-13T02:30:06.074Z,6.18
2019-05-13T02:32:38.149Z,6.44
2019-05-13T02:35:13.884Z,6.00
2019-05-13T02:37:44.004Z,6.06
2019-05-13T02:40:16.298Z,5.64
2019-05-13T02:42:48.010Z,5.33
2019-05-13T02:45:22.723Z,5.22
2019-05-13T02:47:54.225Z,5.04
2019-05-13T02:50:25.842Z,5.10
2019-05-13T02:52:57.961Z,5.61
2019-05-13T02:55:32.886Z,5.21
2019-05-13T02:58:03.860Z,5.16
2019-05-13T03:00:35.700Z,5.14
2019-05-13T03:03:07.375Z,5.08
2019-05-13T03:05:39.092Z,5.02
2019-05-13T03:08:12.829Z,5.04
2019-05-13T03:10:43.647Z,4.98
2019-05-13T03:13:15.718Z,4.99
2019-05-13T03:15:54.859Z,5.14
2019-05-13T03:18:26.793Z,5.02
2019-05-13T03:20:58.977Z,4.87
2019-05-13T03:23:32.760Z,5.03
2019-05-13T03:26:05.020Z,5.14
2019-05-13T03:28:36.616Z,4.94
2019-05-13T03:31:08.191Z,4.84
2019-05-13T03:33:45.324Z,4.88
2019-05-13T03:36:16.426Z,4.85
2019-05-13T03:39:01.712Z,5.03
2019-05-13T03:41:22.901Z,4.78
2019-05-13T03:43:57.164Z,4.62
2019-05-13T03:46:33.386Z,4.61
2019-05-13T03:49:05.615Z,4.65
2019-05-13T03:51:38.674Z,4.65
2019-05-13T03:54:12.651Z,4.82
2019-05-13T03:56:43.951Z,4.73
2019-05-13T03:59:16.102Z,4.77
2019-05-13T04:01:47.962Z,4.80
2019-05-13T04:04:23.456Z,4.83
2019-05-13T04:06:53.300Z,4.89
2019-05-13T04:09:31.251Z,4.88
2019-05-13T04:11:58.015Z,4.73
2019-05-13T04:14:33.038Z,4.75
2019-05-13T04:17:03.232Z,4.96
2019-05-13T04:19:36.082Z,5.04
2019-05-13T04:22:08.368Z,4.59
2019-05-13T04:24:42.671Z,4.95
2019-05-13T04:27:14.238Z,5.05
2019-05-13T04:29:46.720Z,4.89
2019-05-13T04:32:18.815Z,4.75
2019-05-13T04:34:52.835Z,4.85
2019-05-13T04:37:24.339Z,4.95
2019-05-13T04:39:56.800Z,4.94
2019-05-13T04:42:28.508Z,5.06
2019-05-13T04:45:02.958Z,5.13
2019-05-13T04:47:35.395Z,5.23
2019-05-13T04:50:08.353Z,5.23
2019-05-13T04:52:42.382Z,5.13
2019-05-13T04:55:15.563Z,5.13
2019-05-13T04:57:47.410Z,5.24
2019-05-13T05:00:32.324Z,5.36
2019-05-13T05:03:41.394Z,5.17
2019-05-13T05:06:18.179Z,5.59
2019-05-13T05:10:02.759Z,5.57
2019-05-13T05:12:42.789Z,5.32
2019-05-13T05:15:58.428Z,5.53
2019-05-13T05:19:02.248Z,5.61
2019-05-13T05:21:41.720Z,5.81
2019-05-13T05:24:52.145Z,6.10
2019-05-13T05:27:48.116Z,6.42
2019-05-13T05:30:59.499Z,6.74
2019-05-13T05:33:56.690Z,6.49
2019-05-13T05:36:58.218Z,6.67
2019-05-13T05:39:31.550Z,6.78
2019-05-13T05:42:03.975Z,6.86
2019-05-13T05:44:37.434Z,6.93
2019-05-13T05:47:11.233Z,6.78
2019-05-13T05:49:45.198Z,7.15
2019-05-13T05:52:17.889Z,7.20
2019-05-13T05:54:51.936Z,7.39
2019-05-13T05:57:25.245Z,7.47
2019-05-13T05:59:57.262Z,7.47
2019-05-13T06:02:32.039Z,7.53
2019-05-13T06:05:03.570Z,7.64
2019-05-13T06:07:36.106Z,7.73
2019-05-13T06:10:07.880Z,7.73
2019-05-13T06:12:42.178Z,7.90
2019-05-13T06:15:12.890Z,7.97
2019-05-13T06:17:44.981Z,8.27
2019-05-13T06:20:16.304Z,8.37
2019-05-13T06:22:48.084Z,8.57
2019-05-13T06:25:23.167Z,8.61
2019-05-13T06:27:53.319Z,8.52
2019-05-13T06:30:25.621Z,8.71
2019-05-13T06:32:57.877Z,8.58
2019-05-13T06:35:29.517Z,8.75
2019-05-13T06:38:01.647Z,8.68
2019-05-13T06:40:33.357Z,8.82
2019-05-13T06:43:05.210Z,8.94
2019-05-13T06:45:37.165Z,8.90
2019-05-13T06:48:08.826Z,8.77
2019-05-13T06:50:41.713Z,8.96
2019-05-13T06:53:13.449Z,9.33
2019-05-13T06:55:45.231Z,9.32
2019-05-13T06:58:17.137Z,9.16
2019-05-13T07:00:51.648Z,9.38
2019-05-13T07:03:22.505Z,9.37
2019-05-13T07:05:55.002Z,9.53
2019-05-13T07:08:26.381Z,9.92
2019-05-13T07:10:58.450Z,9.71
2019-05-13T07:13:32.310Z,9.65
2019-05-13T07:16:03.563Z,10.03
2019-05-13T07:18:35.592Z,10.16
2019-05-13T07:21:07.619Z,10.36
2019-05-13T07:23:42.229Z,10.21
2019-05-13T07:26:14.765Z,10.33
2019-05-13T07:28:46.988Z,10.39
2019-05-13T07:31:18.751Z,10.94
2019-05-13T07:33:51.724Z,10.20
2019-05-13T07:36:24.058Z,10.39
2019-05-13T07:38:55.829Z,10.58
2019-05-13T07:41:36.441Z,11.28
2019-05-13T07:44:02.668Z,10.98
2019-05-13T07:46:34.332Z,10.79
2019-05-13T07:49:05.955Z,10.77
2019-05-13T07:51:37.683Z,11.26
2019-05-13T07:54:11.384Z,11.47
2019-05-13T07:56:42.845Z,11.46
2019-05-13T07:59:14.667Z,11.37
2019-05-13T08:01:46.299Z,11.83
2019-05-13T08:04:22.760Z,12.04
2019-05-13T08:06:52.380Z,12.23
2019-05-13T08:09:24.785Z,12.26
2019-05-13T08:12:06.515Z,12.46
2019-05-13T08:14:32.395Z,12.32
2019-05-13T08:17:03.103Z,12.15
2019-05-13T08:19:34.930Z,12.48
2019-05-13T08:22:06.175Z,12.28
2019-05-13T08:24:42.482Z,12.13
2019-05-13T08:27:13.074Z,12.34
2019-05-13T08:29:45.457Z,12.82
2019-05-13T08:32:17.342Z,13.69
2019-05-13T08:34:57.915Z,13.59
2019-05-13T08:37:22.126Z,12.73
2019-05-13T08:39:54.265Z,12.64
2019-05-13T08:42:26.123Z,13.25
2019-05-13T08:44:57.927Z,13.49
2019-05-13T08:47:31.407Z,13.60
2019-05-13T08:50:04.327Z,13.23
2019-05-13T08:52:37.837Z,14.29
2019-05-13T08:55:13.513Z,14.39
2019-05-13T08:57:42.955Z,12.95
2019-05-13T09:00:14.998Z,13.36
2019-05-13T09:02:47.915Z,13.69
2019-05-13T09:05:21.562Z,13.63
2019-05-13T09:07:53.166Z,13.60
2019-05-13T09:10:24.729Z,14.41
2019-05-13T09:12:56.636Z,14.39
2019-05-13T09:15:28.640Z,14.36
2019-05-13T09:18:02.364Z,14.53
2019-05-13T09:20:36.127Z,14.32
2019-05-13T09:23:07.816Z,14.55
2019-05-13T09:25:41.642Z,14.04
2019-05-13T09:28:13.476Z,14.57
2019-05-13T09:30:45.048Z,14.57
2019-05-13T09:33:17.154Z,14.39
2019-05-13T09:35:50.987Z,14.33
2019-05-13T09:38:22.740Z,14.52
2019-05-13T09:40:53.964Z,14.91
2019-05-13T09:43:25.878Z,14.96
2019-05-13T09:45:57.400Z,15.22
2019-05-13T09:48:31.738Z,15.58
2019-05-13T09:51:02.877Z,15.35
2019-05-13T09:53:34.585Z,14.51
2019-05-13T09:56:06.142Z,15.08
2019-05-13T09:58:37.912Z,15.25
2019-05-13T10:01:11.602Z,15.37
2019-05-13T10:03:53.764Z,15.37
2019-05-13T10:06:16.420Z,16.31
2019-05-13T10:08:48.320Z,15.73
2019-05-13T10:11:21.764Z,15.85
2019-05-13T10:13:53.129Z,16.14
2019-05-13T10:16:24.971Z,16.48
2019-05-13T10:18:57.169Z,16.60
2019-05-13T10:21:28.990Z,16.41
2019-05-13T10:24:00.630Z,16.41
2019-05-13T10:26:33.114Z,17.08
2019-05-13T10:29:04.329Z,16.20
2019-05-13T10:31:36.085Z,16.81
2019-05-13T10:34:07.656Z,16.07
2019-05-13T10:36:42.127Z,15.35
2019-05-13T10:39:13.096Z,15.18
2019-05-13T10:41:45.483Z,15.99
2019-05-13T10:44:18.347Z,16.16
2019-05-13T10:46:52.191Z,16.89
2019-05-13T10:49:23.401Z,17.14
2019-05-13T10:51:55.546Z,17.11
2019-05-13T10:54:27.183Z,16.82
2019-05-13T10:56:59.910Z,15.65
2019-05-13T10:59:32.998Z,16.38
2019-05-13T11:02:04.957Z,17.20
2019-05-13T11:04:36.712Z,17.33
2019-05-13T11:07:08.671Z,17.95
2019-05-13T11:09:41.753Z,18.10
2019-05-13T11:12:13.310Z,18.23
2019-05-13T11:14:46.721Z,17.05
2019-05-13T11:17:23.288Z,16.49
2019-05-13T11:19:51.424Z,18.21
2019-05-13T11:22:23.128Z,17.11
2019-05-13T11:24:54.658Z,16.42
2019-05-13T11:27:26.529Z,16.05
2019-05-13T11:29:57.744Z,17.00
2019-05-13T11:32:31.710Z,16.30
2019-05-13T11:35:03.249Z,16.01
2019-05-13T11:37:34.799Z,15.96
2019-05-13T11:40:06.330Z,16.74
2019-05-13T11:42:38.405Z,16.64
2019-05-13T11:45:11.749Z,17.52
2019-05-13T11:47:45.030Z,16.79
2019-05-13T11:50:17.005Z,16.21
2019-05-13T11:52:48.005Z,16.07
2019-05-13T11:55:22.967Z,16.23
2019-05-13T11:57:53.359Z,16.02
2019-05-13T12:00:53.164Z,16.90
2019-05-13T12:03:24.279Z,16.39
2019-05-13T12:05:55.732Z,15.90
2019-05-13T12:08:27.204Z,16.09
2019-05-13T12:10:58.759Z,15.54
2019-05-13T12:13:32.794Z,15.96
2019-05-13T12:16:04.139Z,16.84
2019-05-13T12:18:43.177Z,16.42
2019-05-13T12:21:11.749Z,16.45
2019-05-13T12:23:42.988Z,16.05
2019-05-13T12:26:15.972Z,15.96
2019-05-13T12:28:47.807Z,16.74
2019-05-13T12:31:22.322Z,18.15
2019-05-13T12:33:52.848Z,19.14
2019-05-13T12:36:24.162Z,18.74
2019-05-13T12:38:57.511Z,18.14
2019-05-13T12:41:33.055Z,17.78
2019-05-13T12:44:02.770Z,17.73
2019-05-13T12:46:35.031Z,18.24
2019-05-13T12:49:06.887Z,18.27
2019-05-13T12:51:38.810Z,17.81
2019-05-13T12:54:13.550Z,18.48
2019-05-13T12:56:44.280Z,18.76
2019-05-13T12:59:16.514Z,17.93
2019-05-13T13:01:48.265Z,17.06
2019-05-13T13:04:23.624Z,16.79
2019-05-13T13:06:53.446Z,17.31
2019-05-13T13:09:25.325Z,17.26
2019-05-13T13:11:57.470Z,16.56
2019-05-13T13:14:36.300Z,16.48
2019-05-13T13:17:04.078Z,17.35
2019-05-13T13:19:35.971Z,17.94
2019-05-13T13:22:08.064Z,17.55
2019-05-13T13:24:48.384Z,17.34
2019-05-13T13:27:20.807Z,16.78
2019-05-13T13:29:47.253Z,16.64
2019-05-13T13:32:19.096Z,16.81
2019-05-13T13:34:54.834Z,16.77
2019-05-13T13:37:24.324Z,16.97
2019-05-13T13:39:55.514Z,17.20
2019-05-13T13:42:27.546Z,16.64
2019-05-13T13:44:59.069Z,17.03
2019-05-13T13:47:33.216Z,17.67
2019-05-13T13:50:04.112Z,18.61
2019-05-13T13:52:35.375Z,17.09
2019-05-13T13:55:08.905Z,16.37
2019-05-13T13:57:44.816Z,16.95
2019-05-13T14:00:31.776Z,17.81
2019-05-13T14:02:47.447Z,17.43
2019-05-13T14:05:18.852Z,18.16
2019-05-13T14:07:52.198Z,17.54
2019-05-13T14:10:23.247Z,17.92
2019-05-13T14:12:54.878Z,17.82
2019-05-13T14:15:26.186Z,17.93
2019-05-13T14:17:58.063Z,18.59
2019-05-13T14:20:29.343Z,17.88
2019-05-13T14:23:02.776Z,17.85
2019-05-13T14:25:34.779Z,18.15
2019-05-13T14:28:06.529Z,18.40
2019-05-13T14:30:38.204Z,18.00
2019-05-13T14:33:09.575Z,18.15
2019-05-13T14:35:41.689Z,17.69
2019-05-13T14:38:13.181Z,17.58
2019-05-13T14:40:45.009Z,17.79
2019-05-13T14:43:17.524Z,17.74
2019-05-13T14:45:52.223Z,17.60
2019-05-13T14:48:23.986Z,17.58
2019-05-13T14:50:54.912Z,17.64
2019-05-13T14:53:27.054Z,17.65
2019-05-13T14:55:58.815Z,17.77
2019-05-13T14:58:32.431Z,17.75
2019-05-13T15:01:17.757Z,17.70
2019-05-13T15:03:37.260Z,17.48
2019-05-13T15:06:11.801Z,17.91
2019-05-13T15:08:42.922Z,17.61
2019-05-13T15:11:14.693Z,17.68
2019-05-13T15:13:47.585Z,17.78
2019-05-13T15:16:22.130Z,17.33
2019-05-13T15:18:53.419Z,17.48
2019-05-13T15:21:24.975Z,17.27
2019-05-13T15:23:56.489Z,17.33
2019-05-13T15:26:28.136Z,17.67
2019-05-13T15:29:04.664Z,17.68
2019-05-13T15:31:33.424Z,17.27
2019-05-13T15:34:04.868Z,16.97
2019-05-13T15:36:36.570Z,17.09
2019-05-13T15:39:08.310Z,17.22
2019-05-13T15:41:41.758Z,17.39
2019-05-13T15:44:13.179Z,16.81
2019-05-13T15:46:44.925Z,16.67
2019-05-13T15:49:16.384Z,16.67
2019-05-13T15:51:48.336Z,16.48
2019-05-13T15:54:22.148Z,16.73
2019-05-13T15:56:53.470Z,16.71
2019-05-13T15:59:25.030Z,17.10
2019-05-13T16:01:56.664Z,16.97
2019-05-13T16:04:27.722Z,16.68
2019-05-13T16:07:01.698Z,16.92
2019-05-13T16:09:33.205Z,17.21
2019-05-13T16:12:04.705Z,16.76
2019-05-13T16:14:36.997Z,16.70
2019-05-13T16:17:08.874Z,16.59
2019-05-13T16:19:42.027Z,16.46
2019-05-13T16:22:14.022Z,16.54
2019-05-13T16:24:45.719Z,16.71
2019-05-13T16:27:17.091Z,16.59
2019-05-13T16:29:51.382Z,16.71
2019-05-13T16:32:23.447Z,16.43
2019-05-13T16:34:55.050Z,16.71
2019-05-13T16:37:26.306Z,16.81
2019-05-13T16:39:57.552Z,16.89
2019-05-13T16:42:31.186Z,16.62
2019-05-13T16:45:03.473Z,16.49
2019-05-13T16:47:36.206Z,16.48
2019-05-13T16:50:11.316Z,16.82
2019-05-13T16:52:42.719Z,16.96
2019-05-13T16:55:14.471Z,16.39
2019-05-13T16:57:46.450Z,16.24
2019-05-13T17:00:18.789Z,16.25
2019-05-13T17:02:51.825Z,16.25
2019-05-13T17:05:23.841Z,15.96
2019-05-13T17:07:55.843Z,16.03
2019-05-13T17:10:27.870Z,16.38
2019-05-13T17:13:02.968Z,16.11
2019-05-13T17:15:33.513Z,15.96
2019-05-13T17:18:11.665Z,15.93
2019-05-13T17:20:38.907Z,16.04
2019-05-13T17:23:12.427Z,16.04
2019-05-13T17:25:44.343Z,15.84
2019-05-13T17:28:16.390Z,15.61
2019-05-13T17:30:47.712Z,15.54
2019-05-13T17:33:22.871Z,15.46
2019-05-13T17:35:52.830Z,15.35
2019-05-13T17:38:25.053Z,15.54
2019-05-13T17:40:56.502Z,15.35
2019-05-13T17:43:28.109Z,15.63
2019-05-13T17:45:59.394Z,15.49
2019-05-13T17:48:32.913Z,15.47
2019-05-13T17:51:04.944Z,15.27
2019-05-13T17:53:36.743Z,15.09
2019-05-13T17:56:08.111Z,14.99
2019-05-13T17:58:42.055Z,14.86
2019-05-13T18:01:14.617Z,15.09
2019-05-13T18:03:46.682Z,14.75
2019-05-13T18:06:18.313Z,14.86
2019-05-13T18:08:51.756Z,14.63
2019-05-13T18:11:24.869Z,14.42
2019-05-13T18:13:56.640Z,14.42
2019-05-13T18:16:28.204Z,14.27
2019-05-13T18:19:00.379Z,14.16
2019-05-13T18:21:32.362Z,14.23
2019-05-13T18:24:04.588Z,13.95
2019-05-13T18:26:36.175Z,14.07
2019-05-13T18:29:08.036Z,13.89
2019-05-13T18:31:41.817Z,13.87
2019-05-13T18:34:12.668Z,13.87
2019-05-13T18:36:44.248Z,13.73
2019-05-13T18:39:15.922Z,13.73
2019-05-13T18:41:48.123Z,13.71
2019-05-13T18:44:19.828Z,13.61
2019-05-13T18:46:52.408Z,13.63
2019-05-13T18:49:25.349Z,13.55
2019-05-13T18:51:57.467Z,13.47
2019-05-13T18:54:31.585Z,13.39
2019-05-13T18:57:03.393Z,13.47
2019-05-13T18:59:35.060Z,13.59
2019-05-13T19:02:06.886Z,13.39
2019-05-13T19:04:38.525Z,13.35
2019-05-13T19:07:10.623Z,13.15
2019-05-13T19:09:42.539Z,13.04
2019-05-13T19:12:15.407Z,13.18
2019-05-13T19:14:46.944Z,12.85
2019-05-13T19:17:18.874Z,12.90
2019-05-13T19:19:51.488Z,12.75
2019-05-13T19:22:23.486Z,12.74
2019-05-13T19:24:55.923Z,12.77
2019-05-13T19:27:27.632Z,12.64
2019-05-13T19:30:01.239Z,12.61
2019-05-13T19:32:32.520Z,12.47
2019-05-13T19:35:03.679Z,12.44
2019-05-13T19:37:36.371Z,12.39
2019-05-13T19:40:09.304Z,12.40
2019-05-13T19:42:41.973Z,12.44
2019-05-13T19:45:17.230Z,12.31
2019-05-13T19:47:48.770Z,12.20
2019-05-13T19:50:22.387Z,12.21
2019-05-13T19:52:54.224Z,12.18
2019-05-13T19:55:27.127Z,12.13
2019-05-13T19:57:58.945Z,11.82
2019-05-13T20:00:31.597Z,11.97
2019-05-13T20:03:02.890Z,11.91
2019-05-13T20:05:34.598Z,11.85
2019-05-13T20:08:06.665Z,11.83
2019-05-13T20:10:38.637Z,11.67
2019-05-13T20:13:11.277Z,11.65
2019-05-13T20:15:43.348Z,11.44
2019-05-13T20:18:15.505Z,11.46
2019-05-13T20:20:47.450Z,11.40
2019-05-13T20:23:21.327Z,11.48
2019-05-13T20:25:53.173Z,11.31
2019-05-13T20:28:24.939Z,11.33
2019-05-13T20:30:56.857Z,11.24
2019-05-13T20:33:28.933Z,11.27
2019-05-13T20:36:01.631Z,11.11
2019-05-13T20:38:33.387Z,11.18
2019-05-13T20:41:05.325Z,11.00
2019-05-13T20:43:36.976Z,11.03
2019-05-13T20:46:08.640Z,11.01
2019-05-13T20:48:41.201Z,10.96
2019-05-13T20:51:13.507Z,10.82
2019-05-13T20:53:45.594Z,10.89
2019-05-13T20:56:17.502Z,10.80
2019-05-13T20:58:51.330Z,10.74
2019-05-13T21:01:23.641Z,10.65
2019-05-13T21:03:56.082Z,10.53
2019-05-13T21:06:27.941Z,10.61
2019-05-13T21:09:01.502Z,10.55
2019-05-13T21:11:35.534Z,10.49
2019-05-13T21:14:07.637Z,10.44
2019-05-13T21:16:41.603Z,10.47
2019-05-13T21:19:13.151Z,10.52
2019-05-13T21:21:44.962Z,10.34
2019-05-13T21:24:16.746Z,10.28
2019-05-13T21:26:51.099Z,10.23
2019-05-13T21:29:22.063Z,10.23
2019-05-13T21:31:54.070Z,10.18
2019-05-13T21:34:26.040Z,10.11
2019-05-13T21:36:58.412Z,10.18
2019-05-13T21:39:31.986Z,10.03
2019-05-13T21:42:03.849Z,10.05
2019-05-13T21:44:35.970Z,9.95
2019-05-13T21:47:08.064Z,9.86
2019-05-13T21:49:42.154Z,9.85
2019-05-13T21:52:13.644Z,9.99
2019-05-13T21:54:45.517Z,9.93
2019-05-13T21:57:17.280Z,9.87
2019-05-13T21:59:48.848Z,9.77
2019-05-13T22:02:23.248Z,9.64
2019-05-13T22:04:54.812Z,9.65
2019-05-13T22:07:26.126Z,9.74
2019-05-13T22:09:58.700Z,9.65
2019-05-13T22:12:32.029Z,9.68
2019-05-13T22:15:03.259Z,9.62
2019-05-13T22:17:36.233Z,9.53
2019-05-13T22:20:08.624Z,9.47
2019-05-13T22:22:41.516Z,9.51
2019-05-13T22:25:13.631Z,9.33
2019-05-13T22:27:45.620Z,9.38
2019-05-13T22:30:17.290Z,9.36
2019-05-13T22:32:49.549Z,9.28
2019-05-13T22:35:21.862Z,9.33
2019-05-13T22:37:54.070Z,9.35
2019-05-13T22:40:25.953Z,9.23
2019-05-13T22:42:57.794Z,9.09
2019-05-13T22:45:31.298Z,9.23
2019-05-13T22:48:03.977Z,9.14
2019-05-13T22:50:36.089Z,9.22
2019-05-13T22:53:07.794Z,9.07
2019-05-13T22:55:41.617Z,9.09
2019-05-13T22:58:13.274Z,9.09
2019-05-13T23:00:45.109Z,9.13
2019-05-13T23:03:18.824Z,9.13
2019-05-13T23:05:52.185Z,9.08
2019-05-13T23:08:23.895Z,9.07
2019-05-13T23:10:55.645Z,9.05
2019-05-13T23:13:26.801Z,8.91
2019-05-13T23:15:59.042Z,8.84
2019-05-13T23:18:31.613Z,8.78
2019-05-13T23:21:03.396Z,8.97
2019-05-13T23:23:35.332Z,8.77
2019-05-13T23:26:06.920Z,8.67
2019-05-13T23:28:38.933Z,8.64
2019-05-13T23:31:12.337Z,8.73
2019-05-13T23:33:44.408Z,8.75
2019-05-13T23:36:16.584Z,8.70
2019-05-13T23:38:48.340Z,8.55
2019-05-13T23:41:21.812Z,8.60
2019-05-13T23:43:55.049Z,8.61
2019-05-13T23:46:26.630Z,8.73
2019-05-13T23:48:58.044Z,8.50
2019-05-13T23:51:32.054Z,8.43
2019-05-13T23:54:03.486Z,8.46
2019-05-13T23:56:35.224Z,8.55
2019-05-13T23:59:07.674Z,8.52
